Hardin, Missouri
Current Conditions -  °F | °C
As of 3:55 PM on Thursday 23 Oct 2014 (Local Time) from KGPH Reporting Station
Overcast Overcast  
Wind Chill: 63°   Ceiling: 1000
Heat Index: 63°   Visibility: 7mi
Dew Point: 61°   Wind: 6mph
Humidity: 94%   Direction: 220°SW
Pressure: 30.05"   Gusts: NA
Location:  39.27°N, 93.83°W
Report Text: KGPH 232055Z AUTO 22005KT 7SM OVC010 17/16 A3005 RMK AO2
Loading
Personal Weather Stations






























Interactive Weather Map
Tropical Storm Tracking
New forecast layout! Learn more

10-Day Weather Forecast

Advertisements
Track Severe Weather on mobile